Time;durP1;ratioP1;P1;durP2;ratioP2;P2;SDS_P1;SDS_P2;PMS_P1;PMS_P2;Temp;Humidity;BMP_temperature;BMP_pressure;BME280_temperature;BME280_humidity;BME280_pressure;Samples;Min_cycle;Max_cycle;Signal;HPM_P1;HPM_P2
2022/06/17 00:01:02;;;;;;;8.60;5.53;;;;;;;16.46;93.45;102269.94;5069576;28;20041;-48
2022/06/17 00:03:34;;;;;;;11.18;6.25;;;;;;;16.44;93.41;102269.19;5073538;28;20585;-47
2022/06/17 00:06:04;;;;;;;9.50;5.82;;;;;;;16.39;93.81;102262.38;5072224;28;20052;-51
2022/06/17 00:08:35;;;;;;;8.50;5.63;;;;;;;16.37;93.14;102261.66;5069888;28;20506;-49
2022/06/17 00:11:03;;;;;;;8.75;5.38;;;;;;;16.36;92.05;102265.25;5072461;28;20445;-49
2022/06/17 00:13:32;;;;;;;9.40;5.63;;;;;;;16.35;91.31;102274.16;5073564;28;20098;-51
2022/06/17 00:16:00;;;;;;;10.07;5.40;;;;;;;16.34;91.25;102269.78;5071564;28;20059;-50
2022/06/17 00:18:29;;;;;;;9.65;5.25;;;;;;;16.33;91.79;102273.44;5073457;28;20071;-51
2022/06/17 00:20:58;;;;;;;9.35;5.20;;;;;;;16.28;92.21;102272.88;5073742;28;20056;-51
2022/06/17 00:23:28;;;;;;;10.80;5.82;;;;;;;16.25;92.58;102273.06;5073497;28;20072;-50
2022/06/17 00:25:56;;;;;;;10.55;5.15;;;;;;;16.23;93.36;102272.31;5071150;28;20036;-49
2022/06/17 00:28:25;;;;;;;8.10;5.78;;;;;;;16.23;93.07;102270.50;5076564;28;20052;-46
2022/06/17 00:30:53;;;;;;;8.82;5.18;;;;;;;16.17;93.73;102273.59;5070979;28;20178;-48
2022/06/17 00:33:21;;;;;;;8.98;5.88;;;;;;;16.15;94.07;102271.97;5070938;28;20445;-51
2022/06/17 00:35:52;;;;;;;11.77;6.13;;;;;;;16.11;93.68;102271.31;5068936;28;20547;-53
2022/06/17 00:38:24;;;;;;;9.35;5.68;;;;;;;16.14;94.25;102264.97;5072038;28;20049;-52
2022/06/17 00:40:53;;;;;;;11.23;5.78;;;;;;;16.08;94.08;102255.63;5072631;28;20048;-49
2022/06/17 00:43:27;;;;;;;9.15;6.53;;;;;;;16.02;94.48;102262.19;5069369;28;20044;-52
2022/06/17 00:46:05;;;;;;;10.93;6.15;;;;;;;16.01;94.81;102263.13;5067681;28;20049;-50
2022/06/17 00:48:38;;;;;;;9.63;6.05;;;;;;;15.99;94.66;102269.47;5071124;28;20161;-50
2022/06/17 00:51:14;;;;;;;14.35;7.63;;;;;;;15.98;94.78;102273.94;5070040;28;20093;-52
2022/06/17 00:53:50;;;;;;;9.65;6.43;;;;;;;16.00;95.14;102279.16;5071109;28;20048;-51
2022/06/17 00:56:24;;;;;;;8.85;5.97;;;;;;;15.97;96.78;102287.31;5067736;28;20994;-49
2022/06/17 00:59:02;;;;;;;8.68;6.07;;;;;;;15.95;97.20;102287.44;5071221;28;20035;-51
2022/06/17 01:01:46;;;;;;;8.23;5.43;;;;;;;15.91;96.98;102285.91;5072546;28;20537;-49
2022/06/17 01:04:19;;;;;;;9.07;5.32;;;;;;;15.93;96.70;102285.81;5071464;28;20051;-51
2022/06/17 01:06:51;;;;;;;9.07;5.40;;;;;;;15.90;96.72;102284.22;5068996;28;20114;-47
2022/06/17 01:12:13;;;;;;;9.15;5.78;;;;;;;15.88;97.80;102279.00;5071154;28;20047;-48
2022/06/17 01:14:43;;;;;;;13.02;6.68;;;;;;;15.92;98.28;102274.34;5066897;28;20067;-46
2022/06/17 01:17:14;;;;;;;9.82;6.50;;;;;;;15.94;98.16;102274.22;5061716;28;20057;-48
2022/06/17 01:19:49;;;;;;;9.90;5.65;;;;;;;15.95;98.23;102274.16;5070643;28;20045;-46
2022/06/17 01:22:25;;;;;;;10.95;6.10;;;;;;;15.96;97.91;102267.88;5072077;28;20048;-46
2022/06/17 01:25:00;;;;;;;9.38;6.82;;;;;;;15.98;98.14;102276.59;5071624;28;20047;-49
2022/06/17 01:27:32;;;;;;;10.73;7.18;;;;;;;15.98;98.35;102279.25;5070267;28;20048;-47
2022/06/17 01:30:01;;;;;;;10.20;7.03;;;;;;;15.96;98.74;102278.50;5071862;28;20044;-51
2022/06/17 01:32:37;;;;;;;16.80;8.73;;;;;;;15.99;99.34;102275.66;5071808;28;20056;-51
2022/06/17 01:35:06;;;;;;;10.32;7.63;;;;;;;16.00;99.20;102272.03;5069282;28;20060;-52
2022/06/17 01:37:34;;;;;;;11.07;7.63;;;;;;;16.02;98.29;102270.16;5070945;28;20056;-48
2022/06/17 01:40:06;;;;;;;10.65;7.50;;;;;;;16.03;98.32;102271.84;5069370;28;20049;-52
2022/06/17 01:42:36;;;;;;;11.15;7.20;;;;;;;16.01;97.96;102273.75;5067407;28;20044;-50
2022/06/17 01:45:05;;;;;;;10.80;7.20;;;;;;;16.03;98.29;102268.31;5069461;28;20045;-49
2022/06/17 01:47:35;;;;;;;12.85;7.82;;;;;;;16.02;97.76;102262.19;5071814;28;20115;-53
2022/06/17 01:50:08;;;;;;;12.73;8.07;;;;;;;16.02;98.60;102264.84;5065564;28;20059;-47
2022/06/17 01:52:40;;;;;;;10.65;7.93;;;;;;;16.03;97.87;102271.84;5070877;28;20048;-51
2022/06/17 01:55:14;;;;;;;12.40;8.30;;;;;;;15.99;98.70;102269.47;5070656;28;20048;-49
2022/06/17 01:57:48;;;;;;;12.85;8.50;;;;;;;15.94;98.98;102269.78;5070591;28;20045;-49
2022/06/17 02:00:21;;;;;;;10.05;7.95;;;;;;;15.91;99.09;102272.66;5065105;28;20662;-52
2022/06/17 02:02:54;;;;;;;12.80;8.90;;;;;;;15.85;99.72;102270.38;5067776;28;20563;-50
2022/06/17 02:05:24;;;;;;;11.82;8.70;;;;;;;15.80;100.00;102275.13;5069325;28;20040;-52
2022/06/17 02:07:55;;;;;;;11.73;8.70;;;;;;;15.78;100.00;102279.66;5067664;28;20625;-51
2022/06/17 02:10:32;;;;;;;11.05;8.20;;;;;;;15.71;100.00;102272.09;5065249;28;20399;-48
2022/06/17 02:13:02;;;;;;;12.93;8.13;;;;;;;15.72;100.00;102270.31;5070830;28;20066;-49
2022/06/17 02:15:30;;;;;;;11.38;8.02;;;;;;;15.70;100.00;102264.25;5066951;28;20052;-47
2022/06/17 02:18:00;;;;;;;10.32;7.50;;;;;;;15.66;100.00;102266.22;5065086;28;20436;-48
2022/06/17 02:20:29;;;;;;;10.90;7.45;;;;;;;15.65;100.00;102275.16;5067875;28;20060;-49
2022/06/17 02:23:02;;;;;;;10.85;7.25;;;;;;;15.65;100.00;102274.28;5066713;28;20123;-50
2022/06/17 02:25:35;;;;;;;11.38;7.60;;;;;;;15.63;100.00;102270.91;5068181;28;20064;-50
2022/06/17 02:28:06;;;;;;;10.10;7.93;;;;;;;15.59;100.00;102264.94;5070575;28;20487;-48
2022/06/17 02:30:35;;;;;;;10.55;7.95;;;;;;;15.59;100.00;102270.22;5067233;28;20044;-46
2022/06/17 02:33:06;;;;;;;12.38;8.27;;;;;;;15.54;100.00;102269.66;5065352;28;20037;-49
2022/06/17 02:35:42;;;;;;;13.90;8.30;;;;;;;15.55;100.00;102269.56;5069061;28;20048;-48
2022/06/17 02:38:15;;;;;;;13.02;8.68;;;;;;;15.54;100.00;102273.19;5070080;28;20048;-50
2022/06/17 02:40:48;;;;;;;11.90;7.85;;;;;;;15.55;100.00;102263.44;5068633;28;20422;-47
2022/06/17 02:43:20;;;;;;;10.73;8.20;;;;;;;15.52;100.00;102266.28;5069887;28;20474;-48
2022/06/17 02:45:52;;;;;;;12.13;8.45;;;;;;;15.56;100.00;102262.50;5066135;28;20055;-46
2022/06/17 02:48:28;;;;;;;12.57;8.00;;;;;;;15.54;100.00;102264.38;5070667;28;20074;-49
2022/06/17 02:50:59;;;;;;;11.10;8.48;;;;;;;15.51;100.00;102256.63;5067061;28;20053;-47
2022/06/17 02:53:32;;;;;;;12.30;8.98;;;;;;;15.53;100.00;102257.38;5069027;28;20090;-49
2022/06/17 02:56:04;;;;;;;;;;;;;;;15.55;100.00;102244.88;5071731;28;20124;-52
2022/06/17 02:58:44;;;;;;;11.70;8.82;;;;;;;15.52;100.00;102247.72;5070467;28;19973;-47
2022/06/17 03:01:18;;;;;;;12.55;9.90;;;;;;;15.47;100.00;102237.41;5068947;28;20045;-45
2022/06/17 03:03:48;;;;;;;12.43;9.93;;;;;;;15.47;100.00;102241.84;5068300;28;20118;-49
2022/06/17 03:06:19;;;;;;;13.98;10.82;;;;;;;15.47;100.00;102244.50;5070939;28;20097;-49
2022/06/17 03:08:50;;;;;;;17.05;11.20;;;;;;;15.46;100.00;102250.75;5074057;28;20044;-46
2022/06/17 03:11:21;;;;;;;15.00;12.02;;;;;;;15.45;100.00;102251.72;5074176;28;20051;-52
2022/06/17 03:13:54;;;;;;;15.38;11.43;;;;;;;15.41;100.00;102258.16;5077342;28;20048;-46
2022/06/17 03:16:23;;;;;;;14.43;12.15;;;;;;;15.34;100.00;102255.88;5070525;28;20090;-46
2022/06/17 03:18:53;;;;;;;14.18;12.02;;;;;;;15.36;100.00;102261.94;5080376;28;20511;-50
2022/06/17 03:21:25;;;;;;;19.00;11.80;;;;;;;15.25;100.00;102261.75;5069633;28;20507;-45
2022/06/17 03:24:00;;;;;;;16.00;11.90;;;;;;;15.20;100.00;102264.72;5076526;28;20517;-47
2022/06/17 03:26:37;;;;;;;15.73;11.68;;;;;;;15.18;100.00;102260.44;5071424;28;20059;-48
2022/06/17 03:29:09;;;;;;;17.75;11.45;;;;;;;15.17;100.00;102269.34;5070134;28;20051;-47
2022/06/17 03:31:41;;;;;;;16.65;11.63;;;;;;;15.18;100.00;102268.41;5066314;28;20063;-48
2022/06/17 03:34:16;;;;;;;16.13;11.40;;;;;;;15.12;100.00;102276.72;5073260;28;20101;-48
2022/06/17 03:36:48;;;;;;;14.60;12.43;;;;;;;15.10;100.00;102282.13;5070772;28;20036;-46
2022/06/17 03:39:21;;;;;;;18.17;12.57;;;;;;;15.08;100.00;102285.81;5073914;28;20090;-49
2022/06/17 03:41:56;;;;;;;14.82;10.90;;;;;;;15.07;100.00;102287.59;5071380;28;20457;-49
2022/06/17 03:44:30;;;;;;;14.98;10.75;;;;;;;15.06;100.00;102285.06;5070246;28;20060;-48
2022/06/17 03:47:05;;;;;;;15.60;11.80;;;;;;;15.06;100.00;102285.06;5070139;28;20441;-50
2022/06/17 03:49:41;;;;;;;13.77;10.90;;;;;;;15.02;100.00;102290.56;5066412;28;20028;-49
2022/06/17 03:52:18;;;;;;;14.82;10.50;;;;;;;15.04;100.00;102287.81;5067434;28;20066;-48
2022/06/17 03:54:46;;;;;;;12.13;9.77;;;;;;;15.06;100.00;102283.25;5074459;28;20072;-48
2022/06/17 03:57:17;;;;;;;18.63;11.15;;;;;;;15.07;100.00;102289.41;5069955;28;20040;-45
2022/06/17 03:59:50;;;;;;;14.15;10.60;;;;;;;15.08;100.00;102288.44;5066089;28;20055;-46
2022/06/17 04:02:19;;;;;;;12.98;10.82;;;;;;;15.11;100.00;102294.44;5072125;28;20052;-47
2022/06/17 04:04:52;;;;;;;12.18;9.95;;;;;;;15.16;100.00;102294.13;5069139;28;20658;-45
2022/06/17 04:07:20;;;;;;;13.52;10.20;;;;;;;15.21;100.00;102298.22;5068952;28;20073;-46
2022/06/17 04:09:50;;;;;;;13.27;10.77;;;;;;;15.28;100.00;102292.53;5071093;28;20063;-49
2022/06/17 04:12:24;;;;;;;14.10;10.80;;;;;;;15.33;100.00;102288.63;5069305;28;20514;-51
2022/06/17 04:14:58;;;;;;;17.48;11.82;;;;;;;15.37;100.00;102289.31;5069220;28;20063;-50
2022/06/17 04:17:34;;;;;;;13.48;11.70;;;;;;;15.44;100.00;102292.44;5072253;28;20044;-46
2022/06/17 04:20:33;;;;;;;18.35;12.48;;;;;;;15.53;100.00;102286.56;5072794;28;20040;-49
2022/06/17 04:23:11;;;;;;;16.48;13.00;;;;;;;15.58;100.00;102289.72;5072868;28;20501;-51
2022/06/17 04:25:43;;;;;;;17.75;13.07;;;;;;;15.63;100.00;102295.59;5073930;28;20506;-52
2022/06/17 04:28:18;;;;;;;16.55;13.05;;;;;;;15.68;100.00;102295.34;5073487;28;20049;-47
2022/06/17 04:30:50;;;;;;;19.52;13.88;;;;;;;15.74;100.00;102286.13;5075688;28;20123;-51
2022/06/17 04:33:26;;;;;;;16.33;14.38;;;;;;;15.80;100.00;102289.28;5084321;28;20049;-47
2022/06/17 04:36:00;;;;;;;18.25;13.82;;;;;;;15.87;100.00;102292.38;5074110;28;20052;-50
2022/06/17 04:38:29;;;;;;;17.23;14.02;;;;;;;15.91;100.00;102283.28;5069047;28;20060;-50
2022/06/17 04:41:00;;;;;;;17.70;14.40;;;;;;;15.95;100.00;102278.59;5071989;28;20053;-50
2022/06/17 04:43:34;;;;;;;17.58;14.82;;;;;;;16.00;100.00;102277.34;5070732;28;20048;-47
2022/06/17 04:46:12;;;;;;;16.48;14.00;;;;;;;16.03;100.00;102279.81;5066289;28;20119;-47
2022/06/17 04:48:40;;;;;;;18.25;14.20;;;;;;;16.09;100.00;102281.22;5066569;28;20120;-50
2022/06/17 04:51:10;;;;;;;16.67;14.13;;;;;;;16.16;99.27;102274.53;5072698;28;20123;-50
2022/06/17 04:53:43;;;;;;;17.20;14.25;;;;;;;16.17;100.00;102270.06;5069626;28;20538;-49
2022/06/17 04:56:19;;;;;;;19.15;14.18;;;;;;;16.20;99.94;102262.75;5069308;28;20049;-52
2022/06/17 04:58:48;;;;;;;18.30;14.55;;;;;;;16.26;99.79;102258.84;5071653;28;20036;-51
2022/06/17 05:01:19;;;;;;;17.95;15.10;;;;;;;16.28;99.84;102259.59;5069651;28;20090;-47
2022/06/17 05:03:48;;;;;;;22.00;14.45;;;;;;;16.33;99.84;102260.16;5073162;28;20090;-46
2022/06/17 05:06:16;;;;;;;17.42;14.32;;;;;;;16.39;99.44;102265.03;5072043;28;20044;-49
2022/06/17 05:08:49;;;;;;;19.20;14.48;;;;;;;16.45;98.81;102265.56;5069979;28;20117;-49
2022/06/17 05:11:25;;;;;;;18.30;14.73;;;;;;;16.51;99.15;102266.00;5072371;28;20052;-47
2022/06/17 05:13:58;;;;;;;17.23;14.95;;;;;;;16.56;98.99;102269.22;5068930;28;20454;-49
2022/06/17 05:16:26;;;;;;;19.27;14.45;;;;;;;16.63;98.98;102277.59;5068281;28;20060;-48
2022/06/17 05:18:55;;;;;;;18.17;14.52;;;;;;;16.67;97.51;102272.94;5073433;28;20044;-47
2022/06/17 05:21:25;;;;;;;16.52;14.05;;;;;;;16.75;97.71;102272.41;5073749;28;20585;-49
2022/06/17 05:23:56;;;;;;;17.10;14.25;;;;;;;16.80;97.60;102267.63;5070433;28;20159;-47
2022/06/17 05:26:25;;;;;;;17.80;14.43;;;;;;;16.85;96.48;102261.03;5069780;28;20411;-46
2022/06/17 05:28:55;;;;;;;17.33;13.70;;;;;;;16.89;95.44;102261.69;5072120;28;20044;-47
2022/06/17 05:31:26;;;;;;;16.95;14.05;;;;;;;16.96;94.76;102265.63;5068763;28;20123;-51
2022/06/17 05:33:54;;;;;;;17.73;13.50;;;;;;;17.01;94.27;102266.16;5071621;28;20063;-52
2022/06/17 05:36:22;;;;;;;15.55;13.32;;;;;;;17.02;92.72;102257.22;5073316;28;20041;-47
2022/06/17 05:38:50;;;;;;;14.13;12.63;;;;;;;17.00;92.66;102248.53;5068119;28;20106;-49
2022/06/17 05:41:23;;;;;;;18.23;12.35;;;;;;;17.15;91.18;102261.66;5070057;28;20053;-52
2022/06/17 05:43:51;;;;;;;15.10;11.65;;;;;;;17.16;90.92;102264.22;5072687;28;20048;-48
2022/06/17 05:46:20;;;;;;;19.02;12.57;;;;;;;17.12;91.82;102261.91;5072800;28;20043;-47
2022/06/17 05:48:48;;;;;;;15.88;11.93;;;;;;;17.22;92.94;102260.28;5072641;28;20380;-49
2022/06/17 05:51:16;;;;;;;15.57;12.48;;;;;;;17.37;91.87;102253.03;5072780;28;20048;-47
2022/06/17 05:53:45;;;;;;;17.08;11.75;;;;;;;17.49;90.70;102253.94;5072258;28;20372;-51
2022/06/17 05:56:13;;;;;;;16.10;11.63;;;;;;;17.68;91.00;102264.09;5072961;28;20132;-51
2022/06/17 05:58:41;;;;;;;13.07;11.02;;;;;;;17.89;88.05;102259.00;5072347;28;20047;-49
2022/06/17 06:01:09;;;;;;;14.45;11.02;;;;;;;18.08;86.76;102258.53;5072611;28;20040;-48
2022/06/17 06:03:39;;;;;;;13.07;9.35;;;;;;;18.23;85.52;102264.50;5072473;28;20048;-47
2022/06/17 06:06:07;;;;;;;16.88;8.93;;;;;;;18.37;84.39;102266.97;5071914;28;20419;-48
2022/06/17 06:08:35;;;;;;;11.50;8.43;;;;;;;18.55;82.21;102270.03;5069047;28;20052;-49
2022/06/17 06:11:04;;;;;;;11.90;7.72;;;;;;;18.79;79.62;102270.91;5071024;28;20041;-50
2022/06/17 06:13:32;;;;;;;12.13;7.80;;;;;;;19.01;81.11;102265.63;5072553;28;20109;-50
2022/06/17 06:16:02;;;;;;;12.30;7.47;;;;;;;19.28;79.59;102276.91;5047960;28;20095;-49
2022/06/17 06:18:33;;;;;;;10.57;7.05;;;;;;;19.40;77.95;102271.44;5049120;28;20041;-48
2022/06/17 06:21:04;;;;;;;10.35;6.43;;;;;;;19.58;73.91;102269.09;5051999;28;20048;-50
2022/06/17 06:23:33;;;;;;;12.27;6.32;;;;;;;19.72;74.09;102261.78;5052542;28;20049;-48
2022/06/17 06:26:01;;;;;;;10.18;5.88;;;;;;;19.89;74.52;102260.41;5049993;28;20045;-49
2022/06/17 06:28:30;;;;;;;10.75;5.53;;;;;;;20.00;72.18;102251.53;5047944;28;20057;-51
2022/06/17 06:31:03;;;;;;;8.77;4.82;;;;;;;20.25;71.32;102242.31;5050686;28;20061;-48
2022/06/17 06:33:31;;;;;;;9.40;5.00;;;;;;;20.36;71.55;102252.09;5051247;28;20048;-49
2022/06/17 06:36:00;;;;;;;8.43;4.35;;;;;;;20.60;69.79;102262.50;5048537;28;20059;-48
2022/06/17 06:38:29;;;;;;;7.07;4.28;;;;;;;20.61;69.79;102258.84;5050817;28;20045;-49
2022/06/17 06:40:57;;;;;;;8.27;3.90;;;;;;;20.66;68.99;102245.94;5051588;28;20381;-48
2022/06/17 06:43:26;;;;;;;7.35;4.30;;;;;;;20.72;66.70;102242.78;5052114;28;20052;-48
2022/06/17 06:45:55;;;;;;;8.98;4.18;;;;;;;20.82;65.56;102242.81;5067387;28;20117;-47
2022/06/17 06:48:25;;;;;;;7.07;3.92;;;;;;;20.89;66.46;102241.28;5052107;28;20083;-50
2022/06/17 06:50:53;;;;;;;9.98;4.10;;;;;;;20.99;64.90;102244.00;5052185;28;20480;-47
2022/06/17 06:53:21;;;;;;;9.57;3.67;;;;;;;21.22;64.94;102235.78;5052025;28;20056;-46
2022/06/17 06:55:52;;;;;;;7.03;3.60;;;;;;;21.46;63.70;102232.75;5052093;28;20445;-51
2022/06/17 06:58:23;;;;;;;11.25;3.75;;;;;;;21.62;63.72;102240.25;5052063;28;20107;-50
2022/06/17 07:00:53;;;;;;;9.68;3.42;;;;;;;21.77;61.67;102236.19;5051628;28;20111;-50
2022/06/17 07:03:23;;;;;;;7.55;3.95;;;;;;;21.78;60.72;102229.00;5067435;28;20053;-48
2022/06/17 07:05:54;;;;;;;8.50;3.53;;;;;;;21.95;60.19;102235.47;5052024;28;20051;-48
2022/06/17 07:08:24;;;;;;;8.05;3.30;;;;;;;21.86;61.20;102231.81;5050181;28;20045;-47
2022/06/17 07:10:59;;;;;;;8.32;3.45;;;;;;;21.98;59.32;102224.50;5048106;28;20049;-48
2022/06/17 07:13:27;;;;;;;9.43;3.58;;;;;;;22.08;59.90;102232.53;5049589;28;20056;-50
2022/06/17 07:15:56;;;;;;;7.13;2.80;;;;;;;22.26;60.35;102219.25;5051850;28;20069;-48
2022/06/17 07:18:26;;;;;;;7.97;3.20;;;;;;;22.33;58.81;102217.66;5050545;28;20064;-48
2022/06/17 07:20:58;;;;;;;7.35;3.75;;;;;;;22.51;56.31;102216.94;5051859;28;20396;-50
2022/06/17 07:23:29;;;;;;;6.85;3.30;;;;;;;22.55;56.95;102215.66;5051906;28;20381;-48
2022/06/17 07:26:02;;;;;;;5.60;2.60;;;;;;;22.55;56.98;102204.94;5051774;28;20439;-49
2022/06/17 07:28:30;;;;;;;5.05;2.60;;;;;;;22.66;56.98;102210.16;5051687;28;20057;-50
2022/06/17 07:30:58;;;;;;;7.35;2.60;;;;;;;23.00;56.08;102204.22;5051310;28;20068;-50
2022/06/17 07:33:28;;;;;;;8.10;2.90;;;;;;;23.07;53.02;102205.28;5052066;28;20045;-48
2022/06/17 07:36:01;;;;;;;7.07;2.95;;;;;;;23.24;53.12;102206.34;5050687;28;20381;-50
2022/06/17 07:41:23;;;;;;;4.57;2.05;;;;;;;23.59;52.38;102214.59;5054237;28;20545;-52
2022/06/17 07:43:52;;;;;;;5.78;2.47;;;;;;;23.64;53.18;102212.28;5055288;28;20052;-48
2022/06/17 07:46:22;;;;;;;3.95;2.17;;;;;;;23.70;51.77;102210.84;5054390;28;20115;-48
2022/06/17 07:48:51;;;;;;;5.32;1.95;;;;;;;23.63;52.56;102221.34;5055577;28;20157;-49
2022/06/17 07:51:19;;;;;;;7.50;2.08;;;;;;;23.82;51.41;102219.50;5055245;28;20037;-52
2022/06/17 07:53:46;;;;;;;10.63;2.38;;;;;;;24.04;50.99;102218.22;5055065;28;20131;-48
2022/06/17 07:56:15;;;;;;;4.90;2.35;;;;;;;24.18;50.17;102216.81;5054676;28;20056;-49
2022/06/17 07:58:45;;;;;;;5.28;2.35;;;;;;;24.27;50.39;102218.56;5051295;28;20056;-50
2022/06/17 08:01:14;;;;;;;5.90;2.17;;;;;;;24.50;51.39;102220.69;5051616;28;20041;-49
2022/06/17 08:03:43;;;;;;;8.27;2.50;;;;;;;24.68;48.42;102217.97;5054873;28;20057;-49
2022/06/17 08:06:14;;;;;;;7.35;2.33;;;;;;;24.80;48.99;102211.28;5055079;28;20083;-50
2022/06/17 08:08:42;;;;;;;12.13;2.35;;;;;;;25.01;49.08;102210.06;5054708;28;20107;-53
2022/06/17 08:11:10;;;;;;;7.30;2.90;;;;;;;24.90;47.55;102213.88;5051191;28;20107;-50
2022/06/17 08:13:39;;;;;;;7.85;3.13;;;;;;;25.14;48.42;102222.03;5051210;28;20053;-51
2022/06/17 08:16:12;;;;;;;6.60;2.65;;;;;;;25.27;47.71;102220.72;5054792;28;20033;-50
2022/06/17 08:18:41;;;;;;;6.93;2.75;;;;;;;25.54;47.51;102221.50;5054885;28;20052;-51
2022/06/17 08:21:11;;;;;;;7.22;2.90;;;;;;;25.56;46.85;102224.84;5054498;28;20055;-50
2022/06/17 08:23:39;;;;;;;5.25;2.22;;;;;;;25.84;48.86;102222.69;5054706;28;20037;-52
2022/06/17 08:26:07;;;;;;;5.57;2.38;;;;;;;25.96;46.12;102212.44;5053163;28;20049;-51
2022/06/17 08:28:38;;;;;;;6.93;2.80;;;;;;;26.14;46.57;102220.34;5050192;28;20053;-51
2022/06/17 08:31:08;;;;;;;11.88;2.85;;;;;;;26.47;44.66;102218.44;5051137;28;20795;-48
2022/06/17 08:33:36;;;;;;;6.63;2.67;;;;;;;26.46;43.07;102230.25;5054458;28;20060;-51
2022/06/17 08:36:14;;;;;;;7.88;3.28;;;;;;;26.26;41.83;102220.81;5054606;28;20049;-51
2022/06/17 08:38:47;;;;;;;6.95;2.92;;;;;;;26.42;42.60;102231.59;5054293;28;20523;-52
2022/06/17 08:41:25;;;;;;;9.02;3.05;;;;;;;26.61;42.42;102224.13;5052451;28;20376;-51
2022/06/17 08:44:07;;;;;;;6.22;2.88;;;;;;;26.68;42.60;102226.97;5050625;28;20037;-47
2022/06/17 08:46:52;;;;;;;8.45;3.20;;;;;;;26.88;42.77;102222.06;5052844;28;20049;-49
2022/06/17 08:49:38;;;;;;;10.88;3.70;;;;;;;26.89;42.22;102219.16;5051782;28;20056;-48
2022/06/17 08:52:23;;;;;;;8.23;2.80;;;;;;;27.07;42.36;102218.09;5051110;28;20067;-50
2022/06/17 08:55:02;;;;;;;8.65;3.28;;;;;;;27.50;43.31;102215.84;5053818;28;20053;-49
2022/06/17 08:57:37;;;;;;;9.32;3.28;;;;;;;27.62;40.35;102222.50;5054230;28;20045;-48
2022/06/17 09:00:11;;;;;;;9.32;3.08;;;;;;;27.61;40.53;102225.34;5053737;28;20048;-49
2022/06/17 09:03:01;;;;;;;7.47;2.80;;;;;;;27.72;40.80;102224.94;5050990;28;20049;-47
2022/06/17 09:05:42;;;;;;;7.47;2.60;;;;;;;27.80;39.07;102224.88;5049783;28;20099;-49
2022/06/17 09:08:24;;;;;;;9.05;2.80;;;;;;;27.99;38.91;102222.69;5051580;28;20052;-51
2022/06/17 09:11:04;;;;;;;9.20;2.88;;;;;;;28.02;38.76;102222.38;5050282;28;20098;-53
2022/06/17 09:13:45;;;;;;;7.63;2.90;;;;;;;28.00;38.44;102219.00;5053388;28;20149;-50
2022/06/17 09:16:20;;;;;;;5.70;2.80;;;;;;;28.16;38.49;102218.84;5053623;28;20045;-50
2022/06/17 09:18:55;;;;;;;5.68;2.80;;;;;;;28.27;39.08;102216.72;5053461;28;20484;-51
2022/06/17 09:21:30;;;;;;;9.35;3.58;;;;;;;28.14;37.85;102222.75;5053258;28;20037;-52
2022/06/17 09:24:04;;;;;;;9.07;3.33;;;;;;;28.34;36.95;102214.94;5052949;28;20071;-51
2022/06/17 09:26:36;;;;;;;8.70;3.05;;;;;;;28.61;38.51;102215.34;5048861;28;20049;-49
2022/06/17 09:29:14;;;;;;;7.22;3.20;;;;;;;28.65;37.78;102213.97;5051654;28;20056;-52
2022/06/17 09:31:47;;;;;;;6.85;3.17;;;;;;;28.00;37.79;102202.78;5053675;28;20055;-52
2022/06/17 09:34:22;;;;;;;8.43;3.25;;;;;;;27.99;37.87;102210.03;5052547;28;20051;-53
2022/06/17 09:36:56;;;;;;;10.25;2.97;;;;;;;28.62;38.87;102217.84;5049956;28;20128;-50
2022/06/17 09:39:30;;;;;;;7.57;3.28;;;;;;;28.81;37.12;102215.63;5051123;28;20111;-49
2022/06/17 09:42:06;;;;;;;6.75;2.60;;;;;;;29.09;37.71;102206.81;5050522;28;20053;-49
2022/06/17 09:44:40;;;;;;;8.60;3.00;;;;;;;29.24;36.38;102209.47;5049677;28;20049;-52
2022/06/17 09:47:15;;;;;;;6.55;2.80;;;;;;;29.55;35.25;102205.66;5053277;28;20546;-51
2022/06/17 09:49:52;;;;;;;7.45;3.22;;;;;;;29.25;34.79;102200.34;5053027;28;20057;-51
2022/06/17 09:52:26;;;;;;;6.07;2.80;;;;;;;29.60;35.26;102203.16;5051694;28;20102;-48
2022/06/17 09:54:58;;;;;;;7.65;2.85;;;;;;;29.56;35.33;102202.75;5049474;28;20049;-50
2022/06/17 09:57:32;;;;;;;6.28;2.65;;;;;;;29.81;35.14;102199.63;5050234;28;20075;-49
2022/06/17 10:00:05;;;;;;;7.32;2.72;;;;;;;29.63;35.14;102192.78;5052700;28;20057;-49
2022/06/17 10:02:37;;;;;;;6.45;3.13;;;;;;;29.78;34.35;102198.13;5051926;28;20045;-53
2022/06/17 10:05:14;;;;;;;8.38;2.72;;;;;;;29.94;33.59;102199.75;5049590;28;20542;-51
2022/06/17 10:07:51;;;;;;;5.53;2.60;;;;;;;29.85;33.54;102195.50;5049216;28;20072;-46
2022/06/17 10:10:29;;;;;;;6.00;2.50;;;;;;;30.17;34.29;102202.22;5052595;28;20045;-51
2022/06/17 10:13:09;;;;;;;6.22;2.30;;;;;;;30.31;34.68;102194.16;5052435;28;20095;-49
2022/06/17 10:18:31;;;;;;;5.85;2.40;;;;;;;30.37;34.18;102192.53;5048119;28;20057;-51
2022/06/17 10:18:43;;;;;;;9.50;2.40;;;;;;;30.97;33.17;102198.25;5049840;28;20048;-48
2022/06/17 10:21:28;;;;;;;6.25;2.70;;;;;;;31.20;32.36;102200.66;5052378;28;20056;-51
2022/06/17 10:24:04;;;;;;;8.30;3.05;;;;;;;31.05;33.31;102183.69;5052258;28;20068;-49
2022/06/17 10:26:45;;;;;;;7.78;2.50;;;;;;;31.38;30.38;102189.19;5051902;28;20041;-50
2022/06/17 10:29:28;;;;;;;5.70;2.45;;;;;;;31.37;31.25;102184.78;5048605;28;20057;-53
2022/06/17 10:31:57;;;;;;;8.82;3.00;;;;;;;31.30;30.92;102179.34;5050352;28;20044;-52
2022/06/17 10:34:29;;;;;;;5.43;2.60;;;;;;;31.08;32.00;102183.28;5052353;28;20053;-51
2022/06/17 10:37:02;;;;;;;6.33;2.30;;;;;;;31.71;32.48;102188.38;5052271;28;20495;-52
2022/06/17 10:39:32;;;;;;;6.00;2.70;;;;;;;31.54;30.41;102193.38;5052269;28;20527;-52
2022/06/17 10:42:01;;;;;;;5.10;2.22;;;;;;;31.79;30.72;102176.47;5052151;28;20099;-52
2022/06/17 10:44:32;;;;;;;7.50;2.60;;;;;;;32.15;30.65;102178.78;5052485;28;20447;-50
2022/06/17 10:47:05;;;;;;;5.50;2.20;;;;;;;32.12;31.35;102168.28;5051564;28;20044;-48
2022/06/17 10:49:37;;;;;;;7.03;3.00;;;;;;;31.88;29.91;102156.19;5048239;28;20055;-54
2022/06/17 10:52:18;;;;;;;7.32;2.90;;;;;;;31.50;31.38;102154.09;5049410;28;20041;-51
2022/06/17 10:54:49;;;;;;;5.80;2.65;;;;;;;31.90;30.84;102148.63;5052190;28;20056;-52
2022/06/17 10:57:25;;;;;;;6.57;2.70;;;;;;;31.87;31.34;102148.25;5067666;28;20056;-50
2022/06/17 10:59:53;;;;;;;5.57;2.63;;;;;;;32.14;31.00;102144.41;5046448;28;20480;-52
2022/06/17 11:02:27;;;;;;;5.57;2.88;;;;;;;32.43;29.73;102147.69;5047527;28;20033;-49
2022/06/17 11:04:58;;;;;;;6.28;2.50;;;;;;;32.02;30.45;102151.56;5050561;28;20052;-52
2022/06/17 11:07:32;;;;;;;5.55;2.25;;;;;;;32.05;31.31;102151.13;5052061;28;20045;-50
2022/06/17 11:10:02;;;;;;;6.32;2.67;;;;;;;32.17;29.30;102140.47;5050538;28;20053;-49
2022/06/17 11:12:37;;;;;;;4.65;2.00;;;;;;;32.68;30.36;102128.75;5048169;28;20075;-50
2022/06/17 11:15:21;;;;;;;5.50;2.05;;;;;;;32.74;28.29;102131.66;5053165;28;20057;-51
2022/06/17 11:17:51;;;;;;;4.78;2.35;;;;;;;32.51;27.41;102125.69;5055988;28;20053;-51
2022/06/17 11:20:24;;;;;;;6.80;2.20;;;;;;;32.50;28.09;102132.16;5055906;28;20047;-54
2022/06/17 11:23:20;;;;;;;;;;;;;;;32.61;27.42;102127.09;5071812;28;20439;-53
2022/06/17 11:25:51;;;;;;;4.30;1.75;;;;;;;32.94;29.72;102126.09;5055492;28;20020;-53
2022/06/17 11:28:25;;;;;;;5.05;2.45;;;;;;;32.97;27.69;102125.66;5055717;28;20615;-52
2022/06/17 11:30:56;;;;;;;5.45;1.90;;;;;;;32.96;28.46;102130.28;5055548;28;20041;-51
2022/06/17 11:33:26;;;;;;;4.43;2.03;;;;;;;33.28;27.88;102121.28;5055508;28;20472;-49
2022/06/17 11:36:02;;;;;;;3.70;1.70;;;;;;;33.53;27.25;102107.66;5055539;28;20049;-51
2022/06/17 11:38:33;;;;;;;4.10;1.67;;;;;;;33.45;26.43;102114.22;5053011;28;20065;-51
2022/06/17 11:41:22;;;;;;;3.90;1.75;;;;;;;33.81;26.28;102120.00;5052096;28;20049;-53
2022/06/17 11:43:51;;;;;;;4.75;1.90;;;;;;;34.02;26.37;102095.00;5054634;28;20037;-51
2022/06/17 11:46:22;;;;;;;3.40;1.80;;;;;;;33.66;24.78;102101.25;5050127;28;20064;-52